Time;durP1;ratioP1;P1;durP2;ratioP2;P2;SDS_P1;SDS_P2;PMS_P1;PMS_P2;Temp;Humidity;BMP_temperature;BMP_pressure;BME280_temperature;BME280_humidity;BME280_pressure;Samples;Min_cycle;Max_cycle;Signal;HPM_P1;HPM_P2
2020/12/16 00:00:00;;;;;;;21.30;6.45;;;4.30;99.90;;;;;;5049339;28;20051;-66
2020/12/16 00:02:26;;;;;;;18.08;5.90;;;4.30;99.90;;;;;;5056558;28;20067;-67
2020/12/16 00:04:53;;;;;;;20.20;5.93;;;4.40;99.90;;;;;;5079323;28;20048;-67
2020/12/16 00:07:20;;;;;;;17.25;5.47;;;4.30;99.90;;;;;;5061005;28;20054;-67
2020/12/16 00:09:47;;;;;;;19.27;6.30;;;4.30;99.90;;;;;;5063501;28;20507;-67
2020/12/16 00:12:14;;;;;;;15.25;6.07;;;4.30;99.90;;;;;;5052052;28;20043;-67
2020/12/16 00:14:43;;;;;;;17.55;5.80;;;4.30;99.90;;;;;;5054544;28;20041;-67
2020/12/16 00:17:10;;;;;;;19.58;6.50;;;4.30;99.90;;;;;;5067110;28;20040;-67
2020/12/16 00:19:37;;;;;;;23.15;7.22;;;4.30;99.90;;;;;;5068032;28;20060;-67
2020/12/16 00:22:04;;;;;;;15.40;5.88;;;4.30;99.90;;;;;;5067526;28;20040;-67
2020/12/16 00:24:30;;;;;;;15.77;5.90;;;4.30;99.90;;;;;;5068021;28;20036;-67
2020/12/16 00:26:56;;;;;;;19.17;6.88;;;4.30;99.90;;;;;;5062761;28;20098;-67
2020/12/16 00:29:23;;;;;;;15.90;5.40;;;4.30;99.90;;;;;;5069421;28;20033;-67
2020/12/16 00:31:50;;;;;;;16.88;5.68;;;4.30;99.90;;;;;;5065335;28;20033;-67
2020/12/16 00:34:17;;;;;;;17.80;6.15;;;4.40;99.90;;;;;;5065626;28;20033;-67
2020/12/16 00:36:44;;;;;;;18.20;6.40;;;4.40;99.90;;;;;;5066210;28;20045;-67
2020/12/16 00:39:11;;;;;;;16.70;5.32;;;4.40;99.90;;;;;;5069294;28;20040;-67
2020/12/16 00:41:38;;;;;;;16.52;5.90;;;4.40;99.90;;;;;;5064915;28;20098;-66
2020/12/16 00:44:05;;;;;;;14.35;5.68;;;4.40;99.90;;;;;;5069239;28;20102;-66
2020/12/16 00:46:34;;;;;;;21.10;6.63;;;4.50;99.90;;;;;;5063433;28;20127;-66
2020/12/16 00:49:01;;;;;;;16.75;5.50;;;4.50;99.90;;;;;;5066937;28;20094;-66
2020/12/16 00:51:27;;;;;;;22.38;7.00;;;4.40;99.90;;;;;;5060248;28;20044;-66
2020/12/16 00:53:54;;;;;;;18.10;6.05;;;4.40;99.90;;;;;;5063353;28;20067;-66
2020/12/16 00:56:21;;;;;;;16.35;5.47;;;4.50;99.90;;;;;;5063708;28;20040;-66
2020/12/16 00:58:47;;;;;;;16.50;4.90;;;4.50;99.90;;;;;;5065737;28;20051;-67
2020/12/16 01:01:14;;;;;;;15.50;5.43;;;4.50;99.90;;;;;;5065745;28;20033;-67
2020/12/16 01:03:43;;;;;;;19.20;5.30;;;4.50;99.90;;;;;;5065588;28;20180;-67
2020/12/16 01:06:12;;;;;;;15.55;4.95;;;4.40;99.90;;;;;;5048892;28;20037;-67
2020/12/16 01:08:39;;;;;;;17.83;4.65;;;4.30;99.90;;;;;;5066167;28;20051;-67
2020/12/16 01:11:07;;;;;;;14.20;5.30;;;4.40;99.90;;;;;;5070388;28;20653;-67
2020/12/16 01:13:34;;;;;;;18.02;5.10;;;4.40;99.90;;;;;;5057986;28;20044;-67
2020/12/16 01:16:01;;;;;;;17.08;5.10;;;4.40;99.90;;;;;;5050085;28;20064;-67
2020/12/16 01:18:28;;;;;;;14.10;4.78;;;4.40;99.90;;;;;;5062306;28;20484;-67
2020/12/16 01:21:00;;;;;;;16.15;5.43;;;4.40;99.90;;;;;;5057447;28;20048;-67
2020/12/16 01:23:33;;;;;;;17.48;5.25;;;4.40;99.90;;;;;;5079193;28;20055;-67
2020/12/16 01:26:00;;;;;;;14.50;5.55;;;4.40;99.90;;;;;;5057916;28;20041;-67
2020/12/16 01:28:29;;;;;;;20.80;6.15;;;4.40;99.90;;;;;;5046067;28;20122;-67
2020/12/16 01:30:59;;;;;;;15.98;4.72;;;4.30;99.90;;;;;;5066566;28;20487;-67
2020/12/16 01:33:27;;;;;;;13.38;4.50;;;4.40;99.90;;;;;;5069224;28;20543;-67
2020/12/16 01:36:20;;;;;;;15.63;4.93;;;4.30;99.90;;;;;;5060425;28;20081;-66
2020/12/16 01:38:46;;;;;;;20.27;5.53;;;4.40;99.90;;;;;;5063450;28;20119;-67
2020/12/16 01:41:15;;;;;;;17.02;5.50;;;4.30;99.90;;;;;;5066771;28;20036;-67
2020/12/16 01:43:47;;;;;;;16.60;4.90;;;4.30;99.90;;;;;;5056674;28;20054;-67
2020/12/16 01:46:18;;;;;;;14.48;4.68;;;4.30;99.90;;;;;;5064466;28;20715;-67
2020/12/16 01:48:45;;;;;;;15.52;4.70;;;4.30;99.90;;;;;;5070842;28;20521;-67
2020/12/16 01:51:18;;;;;;;17.00;5.65;;;4.30;99.90;;;;;;5053906;28;20051;-67
2020/12/16 01:53:49;;;;;;;13.27;4.43;;;4.30;99.90;;;;;;5059700;28;20128;-67
2020/12/16 01:56:17;;;;;;;19.48;5.90;;;4.20;99.90;;;;;;5083515;28;20044;-66
2020/12/16 01:58:54;;;;;;;14.65;4.63;;;4.30;99.90;;;;;;5058152;28;20036;-67
2020/12/16 02:01:24;;;;;;;15.02;5.00;;;4.30;99.90;;;;;;5051246;28;20060;-67
2020/12/16 02:03:54;;;;;;;17.67;5.72;;;4.20;99.90;;;;;;5068733;28;20102;-67
2020/12/16 02:06:34;;;;;;;17.67;4.93;;;4.30;99.90;;;;;;5067690;28;20056;-67
2020/12/16 02:09:06;;;;;;;15.25;4.68;;;4.20;99.90;;;;;;5069926;28;20119;-67
2020/12/16 02:11:38;;;;;;;19.52;6.03;;;4.20;99.90;;;;;;5063700;28;20037;-67
2020/12/16 02:14:12;;;;;;;21.10;6.07;;;4.30;99.90;;;;;;5062002;28;20048;-67
2020/12/16 02:16:43;;;;;;;17.98;5.13;;;4.30;99.90;;;;;;5046571;28;20749;-67
2020/12/16 02:19:11;;;;;;;18.67;5.90;;;4.30;99.90;;;;;;5066722;28;20045;-67
2020/12/16 02:21:49;;;;;;;17.20;5.65;;;4.30;99.90;;;;;;5067746;28;20072;-67
2020/12/16 02:24:17;;;;;;;16.48;6.22;;;4.30;99.90;;;;;;5067286;28;20460;-67
2020/12/16 02:26:45;;;;;;;22.00;7.28;;;4.30;99.90;;;;;;5077670;28;20037;-66
2020/12/16 02:29:12;;;;;;;19.38;6.07;;;4.30;99.90;;;;;;5065333;28;20106;-66
2020/12/16 02:31:45;;;;;;;21.60;5.82;;;4.30;99.90;;;;;;5067941;28;20043;-66
2020/12/16 02:34:13;;;;;;;19.30;6.03;;;4.30;99.90;;;;;;5059327;28;20392;-66
2020/12/16 02:36:42;;;;;;;21.50;6.55;;;4.30;99.90;;;;;;5071703;28;20162;-66
2020/12/16 02:39:17;;;;;;;21.52;6.63;;;4.40;99.90;;;;;;5060979;28;20045;-66
2020/12/16 02:42:04;;;;;;;19.63;6.25;;;4.40;99.90;;;;;;5063005;28;20407;-66
2020/12/16 02:44:32;;;;;;;24.58;7.13;;;4.40;99.90;;;;;;5065550;28;20072;-66
2020/12/16 02:47:08;;;;;;;21.88;6.60;;;4.40;99.90;;;;;;5069144;28;20040;-66
2020/12/16 02:49:39;;;;;;;20.67;6.43;;;4.40;99.90;;;;;;5063889;28;20531;-67
2020/12/16 02:52:06;;;;;;;21.95;6.32;;;4.40;99.90;;;;;;5082450;28;20128;-67
2020/12/16 02:54:32;;;;;;;18.48;6.00;;;4.40;99.90;;;;;;5059637;28;20141;-67
2020/12/16 02:57:19;;;;;;;17.92;6.03;;;4.40;99.90;;;;;;5061285;28;20550;-67
2020/12/16 02:59:56;;;;;;;17.20;6.70;;;4.40;99.90;;;;;;5064015;28;20738;-67
2020/12/16 03:02:43;;;;;;;21.40;6.95;;;4.40;99.90;;;;;;5056384;28;20180;-67
2020/12/16 03:05:45;;;;;;;22.48;6.68;;;4.40;99.90;;;;;;5044870;28;20048;-67
2020/12/16 03:08:24;;;;;;;24.25;6.75;;;4.40;99.90;;;;;;5068727;28;20056;-66
2020/12/16 03:10:57;;;;;;;23.65;7.38;;;4.30;99.90;;;;;;5062180;28;20107;-66
2020/12/16 03:13:24;;;;;;;21.63;6.45;;;4.40;99.90;;;;;;5053483;28;20395;-67
2020/12/16 03:15:51;;;;;;;25.50;6.95;;;4.40;99.90;;;;;;5064840;28;20033;-67
2020/12/16 03:18:19;;;;;;;23.17;6.50;;;4.40;99.90;;;;;;5056055;28;20048;-67
2020/12/16 03:20:46;;;;;;;22.40;7.10;;;4.40;99.90;;;;;;5060070;28;20088;-66
2020/12/16 03:23:13;;;;;;;24.23;8.05;;;4.40;99.90;;;;;;5062066;28;20106;-66
2020/12/16 03:26:04;;;;;;;20.55;6.65;;;4.40;99.90;;;;;;5019780;28;20088;-66
2020/12/16 03:28:50;;;;;;;19.92;6.53;;;4.50;99.90;;;;;;5026931;28;20762;-66
2020/12/16 03:31:35;;;;;;;19.80;6.13;;;4.50;99.90;;;;;;5026434;28;20068;-66
2020/12/16 03:34:21;;;;;;;21.00;6.07;;;4.50;99.90;;;;;;5010654;28;20056;-67
2020/12/16 03:36:56;;;;;;;27.08;7.90;;;4.50;99.90;;;;;;5027531;28;20045;-67
2020/12/16 03:39:23;;;;;;;27.45;6.93;;;4.50;99.90;;;;;;5026537;28;20243;-67
2020/12/16 03:41:51;;;;;;;28.75;7.93;;;4.50;99.90;;;;;;5025896;28;20594;-66
2020/12/16 03:44:19;;;;;;;27.65;7.53;;;4.40;99.90;;;;;;5008381;28;20535;-66
2020/12/16 03:46:52;;;;;;;20.65;7.40;;;4.50;99.90;;;;;;5011336;28;20057;-67
2020/12/16 03:49:21;;;;;;;22.52;7.10;;;4.50;99.90;;;;;;5024017;28;20055;-67
2020/12/16 03:51:55;;;;;;;20.02;6.97;;;4.50;99.90;;;;;;5026707;28;20471;-67
2020/12/16 03:54:41;;;;;;;24.00;7.57;;;4.50;99.90;;;;;;5011148;28;20168;-67
2020/12/16 03:57:30;;;;;;;21.27;6.82;;;4.50;99.90;;;;;;5021656;28;20525;-67
2020/12/16 04:00:19;;;;;;;27.60;7.47;;;4.60;99.90;;;;;;5011310;28;20045;-66
2020/12/16 04:02:52;;;;;;;25.48;8.13;;;4.50;99.90;;;;;;5023954;28;20060;-66
2020/12/16 04:05:38;;;;;;;25.58;7.68;;;4.60;99.90;;;;;;5058758;28;20396;-67
2020/12/16 04:08:05;;;;;;;28.13;7.70;;;4.60;99.90;;;;;;5061389;28;20153;-67
2020/12/16 04:10:58;;;;;;;;;;;4.50;99.90;;;;;;5006412;28;20045;-67
2020/12/16 04:13:26;;;;;;;23.45;6.88;;;4.60;99.90;;;;;;4990439;28;19921;-67
2020/12/16 04:15:52;;;;;;;23.00;6.50;;;4.60;99.90;;;;;;4990429;28;20569;-67
2020/12/16 04:18:20;;;;;;;23.23;7.40;;;4.60;99.90;;;;;;4987177;28;20869;-67
2020/12/16 04:20:46;;;;;;;25.10;7.63;;;4.60;99.90;;;;;;4989336;28;20073;-67
2020/12/16 04:23:13;;;;;;;31.05;7.63;;;4.70;99.90;;;;;;4986895;28;20058;-67
2020/12/16 04:25:46;;;;;;;27.58;7.72;;;4.60;99.90;;;;;;4972148;28;20045;-67
2020/12/16 04:28:16;;;;;;;25.52;8.65;;;4.60;99.90;;;;;;4989636;28;20061;-67
2020/12/16 04:30:43;;;;;;;22.98;7.07;;;4.60;99.90;;;;;;4975131;28;20069;-67
2020/12/16 04:33:10;;;;;;;25.70;7.55;;;4.60;99.90;;;;;;4993820;28;20541;-67
2020/12/16 04:35:38;;;;;;;26.67;7.53;;;4.60;99.90;;;;;;4975878;28;20042;-67
2020/12/16 04:38:04;;;;;;;26.55;8.20;;;4.60;99.90;;;;;;4987946;28;20048;-67
2020/12/16 04:40:38;;;;;;;22.25;7.05;;;4.60;99.90;;;;;;4989208;28;20056;-67
2020/12/16 04:43:17;;;;;;;24.75;8.82;;;4.60;99.90;;;;;;5007116;28;20514;-67
2020/12/16 04:45:45;;;;;;;24.23;8.02;;;4.60;99.90;;;;;;4974999;28;20132;-67
2020/12/16 04:48:14;;;;;;;23.52;7.78;;;4.60;99.90;;;;;;5042783;28;20208;-66
2020/12/16 04:50:44;;;;;;;28.95;8.73;;;4.70;99.90;;;;;;5072176;28;20795;-66
2020/12/16 04:53:18;;;;;;;24.90;7.40;;;4.70;99.90;;;;;;5062810;28;20075;-67
2020/12/16 04:55:58;;;;;;;28.73;8.40;;;4.60;99.90;;;;;;5064969;28;20167;-66
2020/12/16 04:58:51;;;;;;;27.23;8.20;;;4.60;99.90;;;;;;5066501;28;20084;-66
2020/12/16 05:01:17;;;;;;;24.83;8.05;;;4.70;99.90;;;;;;5059587;28;20052;-66
2020/12/16 05:03:49;;;;;;;25.13;7.83;;;4.70;99.90;;;;;;5056869;28;20044;-66
2020/12/16 05:06:41;;;;;;;26.13;8.07;;;4.70;99.90;;;;;;5057510;28;20646;-67
2020/12/16 05:09:13;;;;;;;27.48;8.43;;;4.70;99.90;;;;;;5068128;28;20045;-67
2020/12/16 05:11:45;;;;;;;27.30;9.93;;;4.70;99.90;;;;;;5066129;28;20062;-67
2020/12/16 05:14:13;;;;;;;24.40;7.80;;;4.70;99.90;;;;;;5069043;28;20032;-67
2020/12/16 05:17:01;;;;;;;24.73;7.95;;;4.60;99.90;;;;;;5061830;28;20056;-67
2020/12/16 05:19:29;;;;;;;25.85;8.02;;;4.60;99.90;;;;;;5048191;28;20125;-66
2020/12/16 05:22:14;;;;;;;25.67;8.57;;;4.70;99.90;;;;;;5071323;28;20040;-66
2020/12/16 05:24:42;;;;;;;22.42;7.22;;;4.70;99.90;;;;;;5070710;28;20094;-67
2020/12/16 05:27:13;;;;;;;24.17;8.23;;;4.60;99.90;;;;;;5072682;28;20036;-67
2020/12/16 05:29:39;;;;;;;29.10;8.63;;;4.70;99.90;;;;;;5069229;28;20043;-66
2020/12/16 05:32:21;;;;;;;27.48;7.85;;;4.70;99.90;;;;;;5062572;28;20495;-66
2020/12/16 05:34:48;;;;;;;25.77;8.20;;;4.70;99.90;;;;;;5069838;28;20037;-66
2020/12/16 05:37:33;;;;;;;25.25;6.90;;;4.70;99.90;;;;;;5074663;28;20483;-66
2020/12/16 05:40:09;;;;;;;25.33;7.45;;;4.70;99.90;;;;;;5072998;28;20028;-66
2020/12/16 05:42:37;;;;;;;16.80;6.32;;;4.70;99.90;;;;;;5065294;28;20052;-66
2020/12/16 05:45:08;;;;;;;23.65;8.20;;;4.70;99.90;;;;;;5062693;28;20110;-66
2020/12/16 05:47:39;;;;;;;21.70;6.50;;;4.70;99.90;;;;;;5064329;28;20049;-67
2020/12/16 05:50:16;;;;;;;26.95;7.75;;;4.70;99.90;;;;;;5074536;28;20041;-67
2020/12/16 05:52:44;;;;;;;23.63;6.55;;;4.70;99.90;;;;;;5069124;28;20051;-67
2020/12/16 05:55:11;;;;;;;18.70;6.00;;;4.70;99.90;;;;;;5046542;28;20754;-67
2020/12/16 05:57:38;;;;;;;19.75;6.50;;;4.70;99.90;;;;;;5068214;28;20040;-67
2020/12/16 06:00:12;;;;;;;23.92;6.32;;;4.60;99.90;;;;;;5063020;28;20044;-67
2020/12/16 06:02:41;;;;;;;16.30;5.70;;;4.60;99.90;;;;;;5070219;28;20050;-67
2020/12/16 06:05:11;;;;;;;19.25;5.65;;;4.60;99.90;;;;;;5067721;28;20055;-66
2020/12/16 06:07:47;;;;;;;19.52;5.43;;;4.60;99.90;;;;;;5057309;28;20118;-66
2020/12/16 06:10:15;;;;;;;18.52;5.35;;;4.50;99.90;;;;;;5061146;28;20044;-66
2020/12/16 06:12:44;;;;;;;20.88;6.28;;;4.50;99.90;;;;;;5070679;28;20037;-66
2020/12/16 06:15:15;;;;;;;22.23;6.07;;;4.50;99.90;;;;;;5066780;28;20051;-66
2020/12/16 06:17:47;;;;;;;29.05;7.82;;;4.50;99.90;;;;;;5063142;28;20496;-66
2020/12/16 06:20:18;;;;;;;29.30;8.02;;;4.50;99.90;;;;;;5067747;28;20079;-66
2020/12/16 06:22:46;;;;;;;34.25;11.45;;;4.50;99.90;;;;;;5058715;28;20048;-66
2020/12/16 06:25:15;;;;;;;23.15;7.07;;;4.50;99.90;;;;;;5065543;28;20691;-66
2020/12/16 06:27:48;;;;;;;22.60;8.15;;;4.40;99.90;;;;;;5072986;28;20047;-67
2020/12/16 06:30:27;;;;;;;26.55;7.90;;;4.50;99.90;;;;;;5068386;28;20061;-66
2020/12/16 06:33:12;;;;;;;26.27;7.63;;;4.40;99.90;;;;;;5066868;28;20044;-66
2020/12/16 06:35:40;;;;;;;24.70;6.72;;;4.40;99.90;;;;;;5061571;28;20056;-67
2020/12/16 06:38:21;;;;;;;27.58;8.05;;;4.40;99.90;;;;;;5064206;28;20044;-66
2020/12/16 06:40:57;;;;;;;21.83;6.68;;;4.40;99.90;;;;;;5058713;28;20067;-66
2020/12/16 06:43:37;;;;;;;23.42;6.95;;;4.40;99.90;;;;;;5067209;28;20044;-66
2020/12/16 06:46:30;;;;;;;23.63;7.47;;;4.40;99.90;;;;;;5051191;28;20064;-66
2020/12/16 06:49:01;;;;;;;27.13;7.30;;;4.40;99.90;;;;;;5058240;28;20064;-66
2020/12/16 06:51:33;;;;;;;22.67;7.78;;;4.40;99.90;;;;;;5057869;28;20429;-66
2020/12/16 06:54:09;;;;;;;24.90;7.60;;;4.40;99.90;;;;;;5060599;28;20413;-66
2020/12/16 06:56:40;;;;;;;26.92;7.35;;;4.40;99.90;;;;;;5084158;28;20483;-66
2020/12/16 06:59:07;;;;;;;25.98;8.70;;;4.40;99.90;;;;;;5063872;28;20037;-67
2020/12/16 07:01:34;;;;;;;27.33;7.43;;;4.50;99.90;;;;;;5055259;28;20053;-67
2020/12/16 07:04:01;;;;;;;28.15;6.95;;;4.50;99.90;;;;;;5054497;28;20383;-67
2020/12/16 07:06:28;;;;;;;23.25;7.43;;;4.50;99.90;;;;;;5064562;28;20049;-66
2020/12/16 07:09:13;;;;;;;29.60;7.32;;;4.50;99.90;;;;;;5065661;28;20102;-66
2020/12/16 07:11:44;;;;;;;27.38;7.25;;;4.50;99.90;;;;;;5060339;28;20037;-67
2020/12/16 07:14:13;;;;;;;28.20;8.05;;;4.50;99.90;;;;;;5064160;28;20036;-66
2020/12/16 07:16:40;;;;;;;33.97;8.88;;;4.50;99.90;;;;;;5065363;28;20795;-66
2020/12/16 07:19:07;;;;;;;40.80;14.18;;;4.50;99.90;;;;;;5060407;28;20478;-66
2020/12/16 07:21:36;;;;;;;111.05;42.55;;;4.50;99.90;;;;;;5068104;28;20787;-66
2020/12/16 07:24:05;;;;;;;52.20;20.48;;;4.50;99.90;;;;;;5050125;28;20037;-66
2020/12/16 07:26:53;;;;;;;72.57;28.40;;;4.50;99.90;;;;;;5063552;28;20070;-66
2020/12/16 07:29:33;;;;;;;51.45;16.35;;;4.50;99.90;;;;;;5062707;28;20112;-67
2020/12/16 07:32:00;;;;;;;42.33;10.20;;;4.50;99.90;;;;;;5062218;28;20120;-66
2020/12/16 07:34:28;;;;;;;29.23;7.90;;;4.60;99.90;;;;;;5056681;28;20040;-66
2020/12/16 07:37:00;;;;;;;34.53;10.52;;;4.60;99.90;;;;;;5062991;28;20044;-66
2020/12/16 07:39:27;;;;;;;41.33;14.25;;;4.70;99.90;;;;;;5064850;28;20048;-66
2020/12/16 07:41:55;;;;;;;39.88;15.38;;;4.70;99.90;;;;;;5070157;28;20056;-66
2020/12/16 07:44:22;;;;;;;32.75;11.02;;;4.80;99.90;;;;;;5064000;28;20487;-66
2020/12/16 07:47:00;;;;;;;28.08;7.97;;;4.80;99.90;;;;;;5061399;28;20048;-66
2020/12/16 07:49:29;;;;;;;49.13;13.27;;;4.80;99.90;;;;;;5059132;28;20496;-67
2020/12/16 07:52:01;;;;;;;33.83;9.65;;;4.80;99.90;;;;;;5062293;28;20037;-67
2020/12/16 07:54:29;;;;;;;31.27;11.88;;;4.90;99.90;;;;;;5068044;28;20037;-66
2020/12/16 07:56:59;;;;;;;38.20;12.85;;;4.90;99.90;;;;;;5063867;28;20050;-66
2020/12/16 07:59:33;;;;;;;47.80;15.75;;;4.80;99.90;;;;;;5058565;28;20087;-67
2020/12/16 08:02:19;;;;;;;26.90;8.35;;;4.80;99.90;;;;;;5059497;28;20044;-67
2020/12/16 08:04:57;;;;;;;34.70;9.20;;;4.80;99.90;;;;;;5067756;28;20048;-67
2020/12/16 08:07:24;;;;;;;31.73;9.65;;;4.80;99.90;;;;;;5059416;28;20047;-66
2020/12/16 08:09:57;;;;;;;24.17;6.68;;;4.80;99.90;;;;;;5062662;28;20086;-66
2020/12/16 08:12:26;;;;;;;25.33;6.95;;;4.80;99.90;;;;;;5059208;28;20071;-66
2020/12/16 08:15:17;;;;;;;29.33;7.00;;;4.90;99.90;;;;;;5067236;28;20117;-66
2020/12/16 08:17:49;;;;;;;23.98;6.80;;;4.90;99.90;;;;;;5066650;28;20040;-66
2020/12/16 08:20:17;;;;;;;23.38;6.20;;;4.90;99.90;;;;;;5064163;28;20056;-66
2020/12/16 08:22:48;;;;;;;28.23;7.10;;;4.90;99.90;;;;;;5052442;28;20060;-66
2020/12/16 08:25:18;;;;;;;26.00;7.55;;;4.90;99.90;;;;;;5062069;28;20044;-67
2020/12/16 08:27:51;;;;;;;25.42;8.25;;;5.00;99.90;;;;;;5059488;28;20043;-66
2020/12/16 08:30:20;;;;;;;23.85;8.77;;;5.00;99.90;;;;;;5063639;28;20114;-66
2020/12/16 08:32:58;;;;;;;28.90;8.20;;;5.00;99.90;;;;;;5059252;28;20049;-64
2020/12/16 08:35:29;;;;;;;30.40;7.38;;;5.00;99.90;;;;;;5035373;28;20392;-63
2020/12/16 08:38:01;;;;;;;53.40;15.95;;;5.10;99.90;;;;;;5055053;28;20048;-63
2020/12/16 08:40:29;;;;;;;34.63;11.95;;;5.10;99.90;;;;;;5061318;28;20040;-63
2020/12/16 08:43:29;;;;;;;34.95;11.10;;;5.20;99.90;;;;;;5064873;28;20140;-63
2020/12/16 08:46:26;;;;;;;29.45;7.43;;;5.20;99.90;;;;;;5059426;28;20095;-64
2020/12/16 08:49:00;;;;;;;24.50;7.80;;;5.20;99.90;;;;;;5059935;28;20049;-63
2020/12/16 08:51:41;;;;;;;29.40;8.30;;;5.20;99.90;;;;;;5062410;28;20075;-64
2020/12/16 08:54:11;;;;;;;27.10;8.20;;;5.20;99.90;;;;;;5064496;28;20539;-64
2020/12/16 08:56:44;;;;;;;25.33;7.13;;;5.20;99.90;;;;;;5062483;28;20462;-64
2020/12/16 08:59:13;;;;;;;35.65;7.53;;;5.20;99.90;;;;;;5067917;28;20052;-64
2020/12/16 09:01:52;;;;;;;26.90;8.38;;;5.20;99.90;;;;;;5074047;28;20048;-64
2020/12/16 09:04:25;;;;;;;27.63;7.30;;;5.30;99.90;;;;;;5069202;28;20487;-64
2020/12/16 09:07:15;;;;;;;35.67;11.60;;;5.20;99.90;;;;;;5070438;28;20094;-63
2020/12/16 09:09:46;;;;;;;31.55;9.20;;;5.20;99.90;;;;;;5055890;28;20048;-63
2020/12/16 09:12:16;;;;;;;26.45;8.25;;;5.20;99.90;;;;;;5071295;28;20067;-64
2020/12/16 09:14:48;;;;;;;26.10;8.30;;;5.20;99.90;;;;;;5068152;28;20028;-64
2020/12/16 09:17:15;;;;;;;;;;;5.20;99.90;;;;;;5065552;28;20036;-64
2020/12/16 09:19:42;;;;;;;25.98;7.88;;;5.20;99.90;;;;;;5070720;28;19974;-64
2020/12/16 09:22:09;;;;;;;29.02;8.32;;;5.20;99.90;;;;;;5066024;28;20040;-63
2020/12/16 09:24:35;;;;;;;28.40;8.48;;;5.10;99.90;;;;;;5067476;28;20056;-64
2020/12/16 09:27:09;;;;;;;30.17;8.75;;;5.20;99.90;;;;;;5069999;28;20033;-65
2020/12/16 09:29:43;;;;;;;30.02;8.05;;;5.20;99.90;;;;;;5059032;28;20403;-64
2020/12/16 09:32:12;;;;;;;29.92;8.05;;;5.30;99.90;;;;;;5070460;28;20072;-68
2020/12/16 09:34:41;;;;;;;28.45;8.43;;;5.30;99.90;;;;;;5062544;28;20435;-68
2020/12/16 09:37:28;;;;;;;34.17;9.73;;;5.30;99.90;;;;;;5063653;28;20106;-68
2020/12/16 09:40:10;;;;;;;27.08;8.48;;;5.30;99.90;;;;;;5061640;28;20045;-68
2020/12/16 09:42:37;;;;;;;34.83;9.67;;;5.30;99.90;;;;;;5065283;28;20135;-67
2020/12/16 09:45:08;;;;;;;39.15;11.40;;;5.30;99.90;;;;;;5048585;28;20290;-68
2020/12/16 09:47:41;;;;;;;35.80;11.50;;;5.20;99.90;;;;;;5066349;28;20059;-68
2020/12/16 09:50:09;;;;;;;39.83;11.77;;;5.20;99.90;;;;;;5054038;28;20786;-68
2020/12/16 09:52:38;;;;;;;32.70;9.18;;;5.10;99.90;;;;;;5067689;28;20046;-70
2020/12/16 09:55:21;;;;;;;31.65;9.82;;;5.20;99.90;;;;;;5061079;28;20470;-68
2020/12/16 09:58:05;;;;;;;30.52;9.02;;;5.20;99.90;;;;;;5073910;28;20098;-71
2020/12/16 10:00:33;;;;;;;24.40;7.85;;;5.20;99.90;;;;;;5050366;28;20506;-68
2020/12/16 10:03:04;;;;;;;25.40;7.47;;;5.30;99.90;;;;;;5072030;28;20508;-68
2020/12/16 10:05:33;;;;;;;25.00;8.10;;;5.30;99.90;;;;;;5069637;28;20045;-69
2020/12/16 10:07:59;;;;;;;53.97;19.67;;;5.30;99.90;;;;;;5071639;28;20044;-69
2020/12/16 10:10:31;;;;;;;34.28;11.98;;;5.30;99.90;;;;;;5055123;28;20696;-69
2020/12/16 10:12:57;;;;;;;32.15;10.13;;;5.20;99.90;;;;;;5069513;28;20383;-68
2020/12/16 10:15:24;;;;;;;24.63;8.00;;;5.20;99.90;;;;;;5051036;28;20035;-66
2020/12/16 10:17:52;;;;;;;28.77;8.85;;;5.20;99.90;;;;;;5067942;28;20040;-69
2020/12/16 10:20:19;;;;;;;23.77;7.63;;;5.10;99.90;;;;;;5055435;28;20053;-69
2020/12/16 10:22:45;;;;;;;20.63;7.05;;;5.20;99.90;;;;;;5045514;28;20041;-70
2020/12/16 10:25:13;;;;;;;25.40;8.13;;;5.20;99.90;;;;;;5065149;28;20028;-67
2020/12/16 10:27:40;;;;;;;25.85;7.90;;;5.10;99.90;;;;;;5066101;28;20491;-68
2020/12/16 10:30:08;;;;;;;25.60;8.52;;;5.10;99.90;;;;;;5065688;28;20041;-69
2020/12/16 10:32:35;;;;;;;21.75;6.43;;;5.10;99.90;;;;;;5071405;28;20044;-68
2020/12/16 10:35:03;;;;;;;21.50;6.28;;;5.10;99.90;;;;;;5064391;28;20037;-67
2020/12/16 10:37:29;;;;;;;25.00;6.88;;;5.00;99.90;;;;;;5052136;28;20136;-68
2020/12/16 10:39:56;;;;;;;27.67;9.32;;;5.00;99.90;;;;;;5059270;28;20116;-69
2020/12/16 10:42:23;;;;;;;28.55;8.82;;;5.10;99.90;;;;;;5058938;28;20044;-70
2020/12/16 10:44:50;;;;;;;33.28;13.23;;;5.10;99.90;;;;;;5063938;28;20055;-70
2020/12/16 10:47:17;;;;;;;38.42;14.68;;;5.10;99.90;;;;;;5059773;28;20041;-67
2020/12/16 10:49:43;;;;;;;33.90;11.13;;;5.10;99.90;;;;;;5069919;28;20036;-67
2020/12/16 10:52:13;;;;;;;28.75;9.50;;;5.10;99.90;;;;;;5070543;28;20123;-72
2020/12/16 10:54:40;;;;;;;28.40;9.45;;;5.10;99.90;;;;;;5055936;28;20484;-71
2020/12/16 10:57:08;;;;;;;24.30;8.70;;;5.10;99.90;;;;;;5065674;28;20048;-68
2020/12/16 10:59:35;;;;;;;29.70;8.73;;;5.10;99.90;;;;;;5070114;28;20487;-69
2020/12/16 11:02:10;;;;;;;30.23;11.00;;;5.10;99.90;;;;;;5060149;28;20045;-69
2020/12/16 11:04:37;;;;;;;29.95;9.93;;;5.00;99.90;;;;;;5065998;28;20135;-69
2020/12/16 11:07:07;;;;;;;28.23;10.35;;;5.00;99.90;;;;;;5068881;28;20056;-70
2020/12/16 11:09:34;;;;;;;26.33;9.68;;;5.00;99.90;;;;;;5061636;28;20056;-70
2020/12/16 11:12:02;;;;;;;30.05;10.13;;;5.00;99.90;;;;;;5055513;28;20043;-70
2020/12/16 11:14:29;;;;;;;30.17;9.13;;;5.00;99.90;;;;;;5066344;28;20068;-68
2020/12/16 11:16:55;;;;;;;30.08;8.45;;;5.00;99.90;;;;;;5071717;28;20044;-69
2020/12/16 11:19:22;;;;;;;23.98;7.18;;;5.00;99.90;;;;;;5054489;28;22493;-69
2020/12/16 11:21:51;;;;;;;27.95;8.90;;;5.00;99.90;;;;;;5046688;28;20474;-68
2020/12/16 11:24:22;;;;;;;19.45;6.32;;;5.00;99.90;;;;;;5064242;28;20055;-68
2020/12/16 11:26:51;;;;;;;26.35;7.82;;;5.00;99.90;;;;;;5065122;28;20052;-68
2020/12/16 11:29:21;;;;;;;31.88;9.35;;;5.00;99.90;;;;;;5058830;28;20488;-67
2020/12/16 11:31:53;;;;;;;29.13;8.75;;;5.00;99.90;;;;;;5065527;28;20491;-67
2020/12/16 11:34:22;;;;;;;28.45;9.15;;;5.00;99.90;;;;;;5059819;28;20041;-68
2020/12/16 11:36:51;;;;;;;17.58;6.65;;;5.00;99.90;;;;;;5044389;28;20141;-68
2020/12/16 11:39:18;;;;;;;25.23;7.35;;;5.10;99.90;;;;;;5055793;28;20112;-68
2020/12/16 11:41:50;;;;;;;33.78;9.55;;;5.00;99.90;;;;;;5044341;28;20032;-68
2020/12/16 11:44:17;;;;;;;88.53;29.25;;;5.00;99.90;;;;;;5055747;28;20048;-68
2020/12/16 11:46:45;;;;;;;51.75;15.10;;;5.10;99.90;;;;;;5060583;28;20143;-68
2020/12/16 11:49:22;;;;;;;29.80;8.45;;;5.00;99.90;;;;;;5050784;28;20391;-68
2020/12/16 11:51:50;;;;;;;36.60;8.93;;;5.00;99.90;;;;;;5058788;28;20072;-67
2020/12/16 11:54:17;;;;;;;28.17;9.05;;;5.00;99.90;;;;;;5069123;28;20578;-67
2020/12/16 11:56:44;;;;;;;31.65;12.80;;;5.10;99.90;;;;;;5064461;28;20051;-67
2020/12/16 11:59:24;;;;;;;159.52;48.15;;;5.00;99.90;;;;;;5054003;28;20047;-67
2020/12/16 12:01:58;;;;;;;79.60;28.42;;;5.00;99.90;;;;;;5068312;28;20082;-67
2020/12/16 12:04:26;;;;;;;33.88;13.10;;;5.00;99.90;;;;;;5058707;28;20127;-68
2020/12/16 12:06:53;;;;;;;19.40;6.82;;;5.00;99.90;;;;;;5038750;28;20491;-68
2020/12/16 12:09:24;;;;;;;23.20;6.95;;;5.00;99.90;;;;;;5045620;28;20134;-67
2020/12/16 12:11:52;;;;;;;17.45;5.82;;;5.00;99.90;;;;;;5066385;28;20596;-68
2020/12/16 12:14:19;;;;;;;21.77;6.13;;;5.10;99.90;;;;;;5065108;28;20040;-67
2020/12/16 12:16:52;;;;;;;25.45;7.38;;;5.00;99.90;;;;;;5069777;28;20499;-68
2020/12/16 12:19:19;;;;;;;26.60;7.72;;;5.00;99.90;;;;;;5062715;28;20202;-67
2020/12/16 12:21:47;;;;;;;24.00;7.60;;;5.10;99.90;;;;;;5053869;28;20047;-67
2020/12/16 12:24:14;;;;;;;33.58;12.38;;;5.00;99.90;;;;;;5066247;28;20056;-68
2020/12/16 12:26:40;;;;;;;24.05;8.98;;;5.10;99.90;;;;;;5067722;28;20773;-68
2020/12/16 12:29:07;;;;;;;24.40;8.57;;;5.10;99.90;;;;;;5068066;28;20079;-68
2020/12/16 12:31:34;;;;;;;23.00;7.68;;;5.10;99.90;;;;;;5070626;28;20045;-68
2020/12/16 12:34:00;;;;;;;25.52;6.82;;;5.00;99.90;;;;;;5057809;28;20415;-67
2020/12/16 12:36:28;;;;;;;24.15;6.63;;;5.00;99.90;;;;;;5068883;28;20513;-67
2020/12/16 12:38:54;;;;;;;23.77;7.60;;;5.00;99.90;;;;;;5061692;28;20049;-67
2020/12/16 12:41:21;;;;;;;28.48;7.15;;;5.00;99.90;;;;;;5073067;28;20044;-68
2020/12/16 12:43:47;;;;;;;22.75;6.28;;;5.00;99.90;;;;;;5050776;28;20060;-68
2020/12/16 12:46:14;;;;;;;23.38;6.38;;;4.90;99.90;;;;;;5068507;28;20052;-67
2020/12/16 12:48:40;;;;;;;21.63;5.97;;;4.90;99.90;;;;;;5068369;28;20052;-67
2020/12/16 12:51:07;;;;;;;26.90;8.38;;;4.90;99.90;;;;;;5064178;28;20041;-68
2020/12/16 12:53:54;;;;;;;44.83;16.98;;;4.90;99.90;;;;;;5066729;28;20102;-67
2020/12/16 12:56:21;;;;;;;32.03;11.70;;;4.90;99.90;;;;;;5061660;28;20039;-68
2020/12/16 12:58:51;;;;;;;34.67;14.23;;;4.90;99.90;;;;;;5062718;28;20037;-68
2020/12/16 13:01:18;;;;;;;24.25;7.18;;;4.90;99.90;;;;;;5061930;28;20403;-67
2020/12/16 13:03:47;;;;;;;25.05;6.88;;;4.80;99.90;;;;;;5046359;28;20057;-68
2020/12/16 13:06:15;;;;;;;25.33;7.85;;;4.80;99.90;;;;;;5061641;28;20348;-68